sensor_id;sensor_type;location;lat;lon;timestamp;P1;durP1;ratioP1;P2;durP2;ratioP2
7128;SDS011;3606;52.930;8.644;2023-07-24T00:01:17;4.03;;;3.60;;
7128;SDS011;3606;52.930;8.644;2023-07-24T00:03:43;4.37;;;3.53;;
7128;SDS011;3606;52.930;8.644;2023-07-24T00:06:09;3.70;;;3.40;;
7128;SDS011;3606;52.930;8.644;2023-07-24T00:08:35;5.40;;;3.67;;
7128;SDS011;3606;52.930;8.644;2023-07-24T00:11:00;3.80;;;3.40;;
7128;SDS011;3606;52.930;8.644;2023-07-24T00:13:29;5.33;;;3.47;;
7128;SDS011;3606;52.930;8.644;2023-07-24T00:15:54;4.30;;;3.33;;
7128;SDS011;3606;52.930;8.644;2023-07-24T00:18:21;3.47;;;3.10;;
7128;SDS011;3606;52.930;8.644;2023-07-24T00:20:47;3.33;;;3.03;;
7128;SDS011;3606;52.930;8.644;2023-07-24T00:23:12;4.03;;;3.63;;
7128;SDS011;3606;52.930;8.644;2023-07-24T00:25:38;3.57;;;3.23;;
7128;SDS011;3606;52.930;8.644;2023-07-24T00:28:04;3.50;;;3.20;;
7128;SDS011;3606;52.930;8.644;2023-07-24T00:30:29;3.87;;;3.13;;
7128;SDS011;3606;52.930;8.644;2023-07-24T00:32:55;8.80;;;3.50;;
7128;SDS011;3606;52.930;8.644;2023-07-24T00:35:20;3.83;;;3.40;;
7128;SDS011;3606;52.930;8.644;2023-07-24T00:37:46;3.80;;;3.10;;
7128;SDS011;3606;52.930;8.644;2023-07-24T00:40:12;5.00;;;3.07;;
7128;SDS011;3606;52.930;8.644;2023-07-24T00:42:37;3.67;;;3.20;;
7128;SDS011;3606;52.930;8.644;2023-07-24T00:45:03;4.27;;;3.10;;
7128;SDS011;3606;52.930;8.644;2023-07-24T00:47:29;5.63;;;3.10;;
7128;SDS011;3606;52.930;8.644;2023-07-24T00:49:54;3.83;;;3.43;;
7128;SDS011;3606;52.930;8.644;2023-07-24T00:52:20;4.37;;;3.37;;
7128;SDS011;3606;52.930;8.644;2023-07-24T00:54:46;4.73;;;3.20;;
7128;SDS011;3606;52.930;8.644;2023-07-24T00:57:13;5.27;;;3.33;;
7128;SDS011;3606;52.930;8.644;2023-07-24T00:59:39;5.47;;;3.47;;
7128;SDS011;3606;52.930;8.644;2023-07-24T01:02:07;4.73;;;3.37;;
7128;SDS011;3606;52.930;8.644;2023-07-24T01:04:33;4.13;;;3.73;;
7128;SDS011;3606;52.930;8.644;2023-07-24T01:06:59;4.13;;;3.57;;
7128;SDS011;3606;52.930;8.644;2023-07-24T01:09:25;5.37;;;3.90;;
7128;SDS011;3606;52.930;8.644;2023-07-24T01:11:51;5.37;;;4.03;;
7128;SDS011;3606;52.930;8.644;2023-07-24T01:14:47;4.90;;;4.00;;
7128;SDS011;3606;52.930;8.644;2023-07-24T01:17:20;4.77;;;4.17;;
7128;SDS011;3606;52.930;8.644;2023-07-24T01:19:49;4.97;;;4.10;;
7128;SDS011;3606;52.930;8.644;2023-07-24T01:27:57;6.07;;;4.17;;
7128;SDS011;3606;52.930;8.644;2023-07-24T01:30:22;4.67;;;4.17;;
7128;SDS011;3606;52.930;8.644;2023-07-24T01:32:48;6.40;;;5.00;;
7128;SDS011;3606;52.930;8.644;2023-07-24T01:35:14;6.10;;;3.93;;
7128;SDS011;3606;52.930;8.644;2023-07-24T01:37:40;5.57;;;4.30;;
7128;SDS011;3606;52.930;8.644;2023-07-24T01:40:08;8.30;;;4.40;;
7128;SDS011;3606;52.930;8.644;2023-07-24T01:42:35;6.80;;;4.87;;
7128;SDS011;3606;52.930;8.644;2023-07-24T01:45:02;7.77;;;4.40;;
7128;SDS011;3606;52.930;8.644;2023-07-24T01:47:28;8.37;;;4.60;;
7128;SDS011;3606;52.930;8.644;2023-07-24T01:49:55;7.07;;;4.60;;
7128;SDS011;3606;52.930;8.644;2023-07-24T01:52:21;7.87;;;4.63;;
7128;SDS011;3606;52.930;8.644;2023-07-24T01:54:46;6.60;;;4.43;;
7128;SDS011;3606;52.930;8.644;2023-07-24T01:57:12;6.23;;;4.60;;
7128;SDS011;3606;52.930;8.644;2023-07-24T01:59:38;5.30;;;4.80;;
7128;SDS011;3606;52.930;8.644;2023-07-24T02:02:03;6.63;;;4.67;;
7128;SDS011;3606;52.930;8.644;2023-07-24T02:04:29;6.50;;;4.67;;
7128;SDS011;3606;52.930;8.644;2023-07-24T02:06:55;7.00;;;4.33;;
7128;SDS011;3606;52.930;8.644;2023-07-24T02:09:20;8.93;;;4.60;;
7128;SDS011;3606;52.930;8.644;2023-07-24T02:11:46;5.00;;;4.43;;
7128;SDS011;3606;52.930;8.644;2023-07-24T02:14:12;5.20;;;4.70;;
7128;SDS011;3606;52.930;8.644;2023-07-24T02:16:39;5.53;;;4.37;;
7128;SDS011;3606;52.930;8.644;2023-07-24T02:19:05;5.33;;;4.47;;
7128;SDS011;3606;52.930;8.644;2023-07-24T02:21:31;5.47;;;4.67;;
7128;SDS011;3606;52.930;8.644;2023-07-24T02:23:57;5.97;;;4.70;;
7128;SDS011;3606;52.930;8.644;2023-07-24T02:26:23;9.67;;;4.93;;
7128;SDS011;3606;52.930;8.644;2023-07-24T02:28:48;6.57;;;4.63;;
7128;SDS011;3606;52.930;8.644;2023-07-24T02:31:14;5.37;;;4.20;;
7128;SDS011;3606;52.930;8.644;2023-07-24T02:33:40;4.73;;;4.27;;
7128;SDS011;3606;52.930;8.644;2023-07-24T02:36:05;4.77;;;4.27;;
7128;SDS011;3606;52.930;8.644;2023-07-24T02:38:31;4.90;;;4.20;;
7128;SDS011;3606;52.930;8.644;2023-07-24T02:40:56;7.00;;;4.87;;
7128;SDS011;3606;52.930;8.644;2023-07-24T02:43:22;5.17;;;4.43;;
7128;SDS011;3606;52.930;8.644;2023-07-24T02:45:47;5.03;;;4.50;;
7128;SDS011;3606;52.930;8.644;2023-07-24T02:48:13;7.23;;;4.80;;
7128;SDS011;3606;52.930;8.644;2023-07-24T02:50:39;4.63;;;4.13;;
7128;SDS011;3606;52.930;8.644;2023-07-24T02:53:04;5.20;;;4.63;;
7128;SDS011;3606;52.930;8.644;2023-07-24T02:55:30;5.63;;;4.80;;
7128;SDS011;3606;52.930;8.644;2023-07-24T02:57:56;6.77;;;5.20;;
7128;SDS011;3606;52.930;8.644;2023-07-24T03:00:21;5.33;;;4.80;;
7128;SDS011;3606;52.930;8.644;2023-07-24T03:02:47;5.70;;;4.47;;
7128;SDS011;3606;52.930;8.644;2023-07-24T03:05:13;5.77;;;4.23;;
7128;SDS011;3606;52.930;8.644;2023-07-24T03:07:38;5.27;;;4.53;;
7128;SDS011;3606;52.930;8.644;2023-07-24T03:10:04;5.97;;;4.27;;
7128;SDS011;3606;52.930;8.644;2023-07-24T03:12:30;5.53;;;4.33;;
7128;SDS011;3606;52.930;8.644;2023-07-24T03:14:55;4.90;;;4.40;;
7128;SDS011;3606;52.930;8.644;2023-07-24T03:17:22;4.83;;;4.33;;
7128;SDS011;3606;52.930;8.644;2023-07-24T03:19:48;5.83;;;3.97;;
7128;SDS011;3606;52.930;8.644;2023-07-24T03:22:14;5.00;;;4.50;;
7128;SDS011;3606;52.930;8.644;2023-07-24T03:24:40;8.90;;;4.80;;
7128;SDS011;3606;52.930;8.644;2023-07-24T03:27:05;5.93;;;4.30;;
7128;SDS011;3606;52.930;8.644;2023-07-24T03:29:31;4.63;;;4.20;;
7128;SDS011;3606;52.930;8.644;2023-07-24T03:31:57;4.67;;;4.07;;
7128;SDS011;3606;52.930;8.644;2023-07-24T03:34:22;4.83;;;4.33;;
7128;SDS011;3606;52.930;8.644;2023-07-24T03:36:48;5.30;;;4.73;;
7128;SDS011;3606;52.930;8.644;2023-07-24T03:39:13;4.63;;;4.23;;
7128;SDS011;3606;52.930;8.644;2023-07-24T03:41:40;4.50;;;3.97;;
7128;SDS011;3606;52.930;8.644;2023-07-24T03:44:07;5.40;;;4.50;;
7128;SDS011;3606;52.930;8.644;2023-07-24T03:46:32;6.40;;;4.43;;
7128;SDS011;3606;52.930;8.644;2023-07-24T03:48:58;5.03;;;4.53;;
7128;SDS011;3606;52.930;8.644;2023-07-24T03:51:24;6.83;;;4.17;;
7128;SDS011;3606;52.930;8.644;2023-07-24T03:53:49;4.63;;;4.10;;
7128;SDS011;3606;52.930;8.644;2023-07-24T03:56:18;5.13;;;3.90;;
7128;SDS011;3606;52.930;8.644;2023-07-24T03:58:44;4.00;;;3.60;;
7128;SDS011;3606;52.930;8.644;2023-07-24T04:01:10;4.57;;;4.10;;
7128;SDS011;3606;52.930;8.644;2023-07-24T04:03:36;3.67;;;3.37;;
7128;SDS011;3606;52.930;8.644;2023-07-24T04:06:02;4.10;;;3.70;;
7128;SDS011;3606;52.930;8.644;2023-07-24T04:08:30;5.27;;;3.70;;
7128;SDS011;3606;52.930;8.644;2023-07-24T04:10:55;4.50;;;3.63;;
7128;SDS011;3606;52.930;8.644;2023-07-24T04:13:21;8.33;;;3.60;;
7128;SDS011;3606;52.930;8.644;2023-07-24T04:15:47;4.10;;;3.30;;
7128;SDS011;3606;52.930;8.644;2023-07-24T04:18:13;3.97;;;3.53;;
7128;SDS011;3606;52.930;8.644;2023-07-24T04:20:39;4.67;;;3.90;;
7128;SDS011;3606;52.930;8.644;2023-07-24T04:23:04;3.73;;;3.43;;
7128;SDS011;3606;52.930;8.644;2023-07-24T04:25:30;3.53;;;3.17;;
7128;SDS011;3606;52.930;8.644;2023-07-24T04:27:56;5.00;;;3.67;;
7128;SDS011;3606;52.930;8.644;2023-07-24T04:30:21;4.00;;;3.10;;
7128;SDS011;3606;52.930;8.644;2023-07-24T04:32:47;3.30;;;3.00;;
7128;SDS011;3606;52.930;8.644;2023-07-24T04:35:12;3.50;;;3.20;;
7128;SDS011;3606;52.930;8.644;2023-07-24T04:37:38;3.87;;;3.57;;
7128;SDS011;3606;52.930;8.644;2023-07-24T04:40:04;3.37;;;3.07;;
7128;SDS011;3606;52.930;8.644;2023-07-24T04:42:30;3.50;;;3.20;;
7128;SDS011;3606;52.930;8.644;2023-07-24T04:44:56;3.83;;;3.10;;
7128;SDS011;3606;52.930;8.644;2023-07-24T04:47:21;4.90;;;3.20;;
7128;SDS011;3606;52.930;8.644;2023-07-24T04:49:47;3.80;;;2.87;;
7128;SDS011;3606;52.930;8.644;2023-07-24T04:52:13;3.40;;;3.10;;
7128;SDS011;3606;52.930;8.644;2023-07-24T04:54:38;3.30;;;3.00;;
7128;SDS011;3606;52.930;8.644;2023-07-24T04:57:04;4.07;;;2.70;;
7128;SDS011;3606;52.930;8.644;2023-07-24T04:59:30;3.77;;;3.47;;
7128;SDS011;3606;52.930;8.644;2023-07-24T05:01:55;3.20;;;2.90;;
7128;SDS011;3606;52.930;8.644;2023-07-24T05:04:23;3.40;;;3.10;;
7128;SDS011;3606;52.930;8.644;2023-07-24T05:06:49;4.00;;;3.20;;
7128;SDS011;3606;52.930;8.644;2023-07-24T05:09:14;4.13;;;3.13;;
7128;SDS011;3606;52.930;8.644;2023-07-24T05:11:40;4.47;;;2.83;;
7128;SDS011;3606;52.930;8.644;2023-07-24T05:14:09;4.13;;;3.00;;
7128;SDS011;3606;52.930;8.644;2023-07-24T05:16:35;4.20;;;2.90;;
7128;SDS011;3606;52.930;8.644;2023-07-24T05:19:00;4.07;;;3.10;;
7128;SDS011;3606;52.930;8.644;2023-07-24T05:21:26;3.00;;;2.70;;
7128;SDS011;3606;52.930;8.644;2023-07-24T05:23:51;3.87;;;3.40;;
7128;SDS011;3606;52.930;8.644;2023-07-24T05:26:17;3.40;;;3.10;;
7128;SDS011;3606;52.930;8.644;2023-07-24T05:28:43;3.63;;;3.20;;
7128;SDS011;3606;52.930;8.644;2023-07-24T05:31:09;3.13;;;2.83;;
7128;SDS011;3606;52.930;8.644;2023-07-24T05:33:34;4.47;;;3.00;;
7128;SDS011;3606;52.930;8.644;2023-07-24T05:36:00;4.33;;;2.97;;
7128;SDS011;3606;52.930;8.644;2023-07-24T05:38:27;3.57;;;3.03;;
7128;SDS011;3606;52.930;8.644;2023-07-24T05:40:56;3.80;;;3.50;;
7128;SDS011;3606;52.930;8.644;2023-07-24T05:43:23;3.90;;;3.50;;
7128;SDS011;3606;52.930;8.644;2023-07-24T05:45:49;4.20;;;3.80;;
7128;SDS011;3606;52.930;8.644;2023-07-24T05:48:18;4.03;;;3.63;;
7128;SDS011;3606;52.930;8.644;2023-07-24T05:50:44;4.20;;;3.50;;
7128;SDS011;3606;52.930;8.644;2023-07-24T05:53:10;3.50;;;3.20;;
7128;SDS011;3606;52.930;8.644;2023-07-24T05:55:35;4.23;;;3.47;;
7128;SDS011;3606;52.930;8.644;2023-07-24T05:58:01;4.53;;;3.80;;
7128;SDS011;3606;52.930;8.644;2023-07-24T06:00:26;4.63;;;3.87;;
7128;SDS011;3606;52.930;8.644;2023-07-24T06:02:52;4.27;;;3.87;;
7128;SDS011;3606;52.930;8.644;2023-07-24T06:05:19;6.53;;;3.83;;
7128;SDS011;3606;52.930;8.644;2023-07-24T06:07:45;4.93;;;3.70;;
7128;SDS011;3606;52.930;8.644;2023-07-24T06:10:13;4.93;;;4.07;;
7128;SDS011;3606;52.930;8.644;2023-07-24T06:12:39;5.93;;;3.90;;
7128;SDS011;3606;52.930;8.644;2023-07-24T06:15:05;4.90;;;4.10;;
7128;SDS011;3606;52.930;8.644;2023-07-24T06:17:31;5.33;;;4.37;;
7128;SDS011;3606;52.930;8.644;2023-07-24T06:19:57;5.23;;;4.27;;
7128;SDS011;3606;52.930;8.644;2023-07-24T06:22:23;6.00;;;4.80;;
7128;SDS011;3606;52.930;8.644;2023-07-24T06:24:48;7.83;;;4.70;;
7128;SDS011;3606;52.930;8.644;2023-07-24T06:27:14;4.60;;;4.20;;
7128;SDS011;3606;52.930;8.644;2023-07-24T06:29:40;5.17;;;4.67;;
7128;SDS011;3606;52.930;8.644;2023-07-24T06:32:06;5.70;;;5.20;;
7128;SDS011;3606;52.930;8.644;2023-07-24T06:34:32;4.77;;;4.27;;
7128;SDS011;3606;52.930;8.644;2023-07-24T06:36:57;5.77;;;5.27;;
7128;SDS011;3606;52.930;8.644;2023-07-24T06:39:23;5.10;;;4.60;;
7128;SDS011;3606;52.930;8.644;2023-07-24T06:41:50;5.90;;;5.30;;
7128;SDS011;3606;52.930;8.644;2023-07-24T06:44:20;5.53;;;4.97;;
7128;SDS011;3606;52.930;8.644;2023-07-24T06:46:46;6.47;;;5.43;;
7128;SDS011;3606;52.930;8.644;2023-07-24T06:49:11;6.00;;;5.40;;
7128;SDS011;3606;52.930;8.644;2023-07-24T06:51:37;5.37;;;4.87;;
7128;SDS011;3606;52.930;8.644;2023-07-24T06:54:03;7.13;;;5.33;;
7128;SDS011;3606;52.930;8.644;2023-07-24T06:56:30;6.60;;;5.90;;
7128;SDS011;3606;52.930;8.644;2023-07-24T06:58:56;8.00;;;5.53;;
7128;SDS011;3606;52.930;8.644;2023-07-24T07:01:21;8.00;;;5.63;;
7128;SDS011;3606;52.930;8.644;2023-07-24T07:03:47;6.50;;;5.77;;
7128;SDS011;3606;52.930;8.644;2023-07-24T07:06:12;6.60;;;5.90;;
7128;SDS011;3606;52.930;8.644;2023-07-24T07:08:38;8.40;;;6.70;;
7128;SDS011;3606;52.930;8.644;2023-07-24T07:11:04;7.07;;;5.70;;
7128;SDS011;3606;52.930;8.644;2023-07-24T07:13:29;7.03;;;6.33;;
7128;SDS011;3606;52.930;8.644;2023-07-24T07:15:55;6.80;;;6.10;;
7128;SDS011;3606;52.930;8.644;2023-07-24T07:18:20;7.00;;;6.40;;
7128;SDS011;3606;52.930;8.644;2023-07-24T07:20:46;7.07;;;6.37;;
7128;SDS011;3606;52.930;8.644;2023-07-24T07:23:13;8.00;;;6.80;;
7128;SDS011;3606;52.930;8.644;2023-07-24T07:25:39;7.33;;;6.63;;
7128;SDS011;3606;52.930;8.644;2023-07-24T07:28:05;8.13;;;6.80;;
7128;SDS011;3606;52.930;8.644;2023-07-24T07:30:31;7.17;;;6.47;;
7128;SDS011;3606;52.930;8.644;2023-07-24T07:32:56;7.73;;;6.00;;
7128;SDS011;3606;52.930;8.644;2023-07-24T07:35:22;6.67;;;6.07;;
7128;SDS011;3606;52.930;8.644;2023-07-24T07:37:48;8.57;;;6.93;;
7128;SDS011;3606;52.930;8.644;2023-07-24T07:40:13;7.50;;;6.80;;
7128;SDS011;3606;52.930;8.644;2023-07-24T07:42:39;7.80;;;6.87;;
7128;SDS011;3606;52.930;8.644;2023-07-24T07:45:04;7.27;;;6.57;;
7128;SDS011;3606;52.930;8.644;2023-07-24T07:47:30;7.10;;;6.40;;
7128;SDS011;3606;52.930;8.644;2023-07-24T07:49:56;8.27;;;6.63;;
7128;SDS011;3606;52.930;8.644;2023-07-24T07:52:21;8.23;;;6.80;;
7128;SDS011;3606;52.930;8.644;2023-07-24T07:54:50;8.70;;;6.63;;
7128;SDS011;3606;52.930;8.644;2023-07-24T07:57:15;7.30;;;6.33;;
7128;SDS011;3606;52.930;8.644;2023-07-24T07:59:41;7.07;;;6.20;;
7128;SDS011;3606;52.930;8.644;2023-07-24T08:02:07;7.30;;;6.53;;
7128;SDS011;3606;52.930;8.644;2023-07-24T08:04:33;7.33;;;6.63;;
7128;SDS011;3606;52.930;8.644;2023-07-24T08:06:58;6.40;;;5.83;;
7128;SDS011;3606;52.930;8.644;2023-07-24T08:09:24;11.03;;;6.67;;
7128;SDS011;3606;52.930;8.644;2023-07-24T08:11:50;7.63;;;6.27;;
7128;SDS011;3606;52.930;8.644;2023-07-24T08:14:16;6.57;;;5.60;;
7128;SDS011;3606;52.930;8.644;2023-07-24T08:16:42;6.23;;;5.63;;
7128;SDS011;3606;52.930;8.644;2023-07-24T08:19:08;6.27;;;5.67;;
7128;SDS011;3606;52.930;8.644;2023-07-24T08:21:33;6.27;;;5.70;;
7128;SDS011;3606;52.930;8.644;2023-07-24T08:23:59;6.87;;;6.27;;
7128;SDS011;3606;52.930;8.644;2023-07-24T08:26:26;7.47;;;6.73;;
7128;SDS011;3606;52.930;8.644;2023-07-24T08:28:52;7.50;;;6.70;;
7128;SDS011;3606;52.930;8.644;2023-07-24T08:31:18;8.17;;;5.80;;
7128;SDS011;3606;52.930;8.644;2023-07-24T08:33:44;8.67;;;6.60;;
7128;SDS011;3606;52.930;8.644;2023-07-24T08:36:09;7.10;;;6.40;;
7128;SDS011;3606;52.930;8.644;2023-07-24T08:38:36;6.43;;;5.83;;
7128;SDS011;3606;52.930;8.644;2023-07-24T08:41:06;6.43;;;5.83;;
7128;SDS011;3606;52.930;8.644;2023-07-24T08:43:34;7.03;;;6.33;;
7128;SDS011;3606;52.930;8.644;2023-07-24T08:46:01;7.00;;;6.30;;
7128;SDS011;3606;52.930;8.644;2023-07-24T08:48:31;6.30;;;5.70;;
7128;SDS011;3606;52.930;8.644;2023-07-24T08:51:00;5.17;;;4.67;;
7128;SDS011;3606;52.930;8.644;2023-07-24T08:53:28;4.70;;;4.00;;
7128;SDS011;3606;52.930;8.644;2023-07-24T08:55:55;5.10;;;4.20;;
7128;SDS011;3606;52.930;8.644;2023-07-24T08:58:22;4.20;;;3.90;;
7128;SDS011;3606;52.930;8.644;2023-07-24T09:00:48;4.50;;;4.07;;
7128;SDS011;3606;52.930;8.644;2023-07-24T09:03:13;5.40;;;4.37;;
7128;SDS011;3606;52.930;8.644;2023-07-24T09:05:39;5.17;;;3.90;;
7128;SDS011;3606;52.930;8.644;2023-07-24T09:08:04;5.67;;;4.07;;
7128;SDS011;3606;52.930;8.644;2023-07-24T09:10:30;5.13;;;4.47;;
7128;SDS011;3606;52.930;8.644;2023-07-24T09:12:56;5.13;;;4.63;;
7128;SDS011;3606;52.930;8.644;2023-07-24T09:15:21;5.33;;;4.80;;
7128;SDS011;3606;52.930;8.644;2023-07-24T09:17:51;5.93;;;5.10;;
7128;SDS011;3606;52.930;8.644;2023-07-24T09:20:20;6.83;;;5.30;;
7128;SDS011;3606;52.930;8.644;2023-07-24T09:22:53;6.03;;;5.13;;
7128;SDS011;3606;52.930;8.644;2023-07-24T09:25:29;6.40;;;5.57;;
7128;SDS011;3606;52.930;8.644;2023-07-24T09:27:56;5.87;;;5.10;;
7128;SDS011;3606;52.930;8.644;2023-07-24T09:30:25;6.60;;;5.47;;
7128;SDS011;3606;52.930;8.644;2023-07-24T09:32:52;5.33;;;4.83;;
7128;SDS011;3606;52.930;8.644;2023-07-24T09:35:18;4.60;;;4.20;;
7128;SDS011;3606;52.930;8.644;2023-07-24T09:37:44;4.55;;;3.80;;
7128;SDS011;3606;52.930;8.644;2023-07-24T09:40:10;4.35;;;3.92;;
7128;SDS011;3606;52.930;8.644;2023-07-24T09:42:37;3.80;;;3.50;;
7128;SDS011;3606;52.930;8.644;2023-07-24T09:45:05;3.50;;;3.20;;
7128;SDS011;3606;52.930;8.644;2023-07-24T09:47:33;4.45;;;3.53;;
7128;SDS011;3606;52.930;8.644;2023-07-24T09:49:59;5.35;;;3.85;;
7128;SDS011;3606;52.930;8.644;2023-07-24T09:52:28;4.60;;;3.88;;
7128;SDS011;3606;52.930;8.644;2023-07-24T09:55:19;4.38;;;3.97;;
7128;SDS011;3606;52.930;8.644;2023-07-24T09:57:46;4.03;;;3.60;;
7128;SDS011;3606;52.930;8.644;2023-07-24T10:00:15;6.03;;;3.97;;
7128;SDS011;3606;52.930;8.644;2023-07-24T10:02:41;4.53;;;4.00;;
7128;SDS011;3606;52.930;8.644;2023-07-24T10:05:07;3.70;;;3.40;;
7128;SDS011;3606;52.930;8.644;2023-07-24T10:07:33;6.72;;;4.32;;
7128;SDS011;3606;52.930;8.644;2023-07-24T10:09:59;3.88;;;3.45;;
7128;SDS011;3606;52.930;8.644;2023-07-24T10:12:27;4.20;;;3.72;;
7128;SDS011;3606;52.930;8.644;2023-07-24T10:14:55;4.25;;;3.42;;
7128;SDS011;3606;52.930;8.644;2023-07-24T10:17:37;4.40;;;3.67;;
7128;SDS011;3606;52.930;8.644;2023-07-24T10:20:04;4.07;;;3.67;;
7128;SDS011;3606;52.930;8.644;2023-07-24T10:22:31;3.83;;;3.53;;
7128;SDS011;3606;52.930;8.644;2023-07-24T10:24:57;4.30;;;3.90;;
7128;SDS011;3606;52.930;8.644;2023-07-24T10:27:23;3.83;;;3.53;;
7128;SDS011;3606;52.930;8.644;2023-07-24T10:30:02;3.95;;;3.65;;
7128;SDS011;3606;52.930;8.644;2023-07-24T10:32:29;4.38;;;3.97;;
7128;SDS011;3606;52.930;8.644;2023-07-24T10:35:16;4.65;;;4.22;;
7128;SDS011;3606;52.930;8.644;2023-07-24T10:37:42;5.57;;;4.20;;
7128;SDS011;3606;52.930;8.644;2023-07-24T10:40:18;8.25;;;4.50;;
7128;SDS011;3606;52.930;8.644;2023-07-24T10:42:58;5.95;;;4.45;;
7128;SDS011;3606;52.930;8.644;2023-07-24T10:45:24;4.47;;;4.07;;
7128;SDS011;3606;52.930;8.644;2023-07-24T10:47:51;4.80;;;4.40;;
7128;SDS011;3606;52.930;8.644;2023-07-24T10:50:17;5.28;;;4.78;;
7128;SDS011;3606;52.930;8.644;2023-07-24T10:52:42;5.93;;;5.13;;
7128;SDS011;3606;52.930;8.644;2023-07-24T10:55:08;5.25;;;4.75;;
7128;SDS011;3606;52.930;8.644;2023-07-24T10:57:33;5.25;;;4.68;;
7128;SDS011;3606;52.930;8.644;2023-07-24T10:59:59;5.95;;;4.78;;
7128;SDS011;3606;52.930;8.644;2023-07-24T11:02:25;4.93;;;4.53;;
7128;SDS011;3606;52.930;8.644;2023-07-24T11:04:50;4.97;;;4.57;;
7128;SDS011;3606;52.930;8.644;2023-07-24T11:07:16;4.47;;;4.07;;
7128;SDS011;3606;52.930;8.644;2023-07-24T11:09:42;4.95;;;4.13;;
7128;SDS011;3606;52.930;8.644;2023-07-24T11:12:12;4.75;;;4.35;;
7128;SDS011;3606;52.930;8.644;2023-07-24T11:14:46;4.55;;;4.15;;
7128;SDS011;3606;52.930;8.644;2023-07-24T11:17:15;4.35;;;3.47;;
7128;SDS011;3606;52.930;8.644;2023-07-24T11:19:40;4.75;;;4.13;;
7128;SDS011;3606;52.930;8.644;2023-07-24T11:22:06;4.70;;;4.30;;
7128;SDS011;3606;52.930;8.644;2023-07-24T11:24:32;4.60;;;4.10;;
7128;SDS011;3606;52.930;8.644;2023-07-24T11:26:58;4.63;;;4.10;;
7128;SDS011;3606;52.930;8.644;2023-07-24T11:29:23;5.57;;;4.18;;
7128;SDS011;3606;52.930;8.644;2023-07-24T11:31:55;4.53;;;4.05;;
7128;SDS011;3606;52.930;8.644;2023-07-24T11:34:21;4.82;;;4.35;;
7128;SDS011;3606;52.930;8.644;2023-07-24T11:36:47;6.68;;;4.88;;
7128;SDS011;3606;52.930;8.644;2023-07-24T11:39:13;4.55;;;4.07;;
7128;SDS011;3606;52.930;8.644;2023-07-24T11:41:46;5.10;;;4.60;;
7128;SDS011;3606;52.930;8.644;2023-07-24T11:44:12;4.65;;;3.90;;
7128;SDS011;3606;52.930;8.644;2023-07-24T11:46:41;5.20;;;4.15;;
7128;SDS011;3606;52.930;8.644;2023-07-24T11:49:08;5.50;;;4.10;;
7128;SDS011;3606;52.930;8.644;2023-07-24T11:51:36;5.53;;;4.10;;
7128;SDS011;3606;52.930;8.644;2023-07-24T11:54:08;6.65;;;4.40;;
7128;SDS011;3606;52.930;8.644;2023-07-24T11:56:36;5.18;;;4.43;;
7128;SDS011;3606;52.930;8.644;2023-07-24T11:59:09;5.10;;;4.10;;
7128;SDS011;3606;52.930;8.644;2023-07-24T12:01:38;5.93;;;4.25;;
7128;SDS011;3606;52.930;8.644;2023-07-24T12:04:03;6.63;;;4.07;;
7128;SDS011;3606;52.930;8.644;2023-07-24T12:06:32;5.00;;;4.55;;
7128;SDS011;3606;52.930;8.644;2023-07-24T12:09:04;4.70;;;4.22;;
7128;SDS011;3606;52.930;8.644;2023-07-24T12:11:31;6.25;;;4.68;;
7128;SDS011;3606;52.930;8.644;2023-07-24T12:13:57;5.35;;;4.50;;
7128;SDS011;3606;52.930;8.644;2023-07-24T12:16:22;7.85;;;4.90;;
7128;SDS011;3606;52.930;8.644;2023-07-24T12:18:48;4.97;;;4.47;;
7128;SDS011;3606;52.930;8.644;2023-07-24T12:21:13;4.70;;;4.25;;
7128;SDS011;3606;52.930;8.644;2023-07-24T12:23:39;5.55;;;4.82;;
7128;SDS011;3606;52.930;8.644;2023-07-24T12:26:05;5.47;;;4.53;;
7128;SDS011;3606;52.930;8.644;2023-07-24T12:28:30;5.90;;;4.50;;
7128;SDS011;3606;52.930;8.644;2023-07-24T12:30:56;5.40;;;4.93;;
7128;SDS011;3606;52.930;8.644;2023-07-24T12:33:21;6.15;;;4.90;;
7128;SDS011;3606;52.930;8.644;2023-07-24T12:35:49;5.35;;;4.47;;
7128;SDS011;3606;52.930;8.644;2023-07-24T12:38:15;5.20;;;4.70;;
7128;SDS011;3606;52.930;8.644;2023-07-24T12:40:40;7.50;;;5.03;;
7128;SDS011;3606;52.930;8.644;2023-07-24T12:43:06;5.20;;;4.43;;
7128;SDS011;3606;52.930;8.644;2023-07-24T12:45:31;7.15;;;4.20;;
7128;SDS011;3606;52.930;8.644;2023-07-24T12:47:57;5.88;;;4.65;;
7128;SDS011;3606;52.930;8.644;2023-07-24T12:50:22;7.05;;;4.18;;
7128;SDS011;3606;52.930;8.644;2023-07-24T12:52:48;5.40;;;4.50;;
7128;SDS011;3606;52.930;8.644;2023-07-24T12:55:14;5.78;;;4.30;;
7128;SDS011;3606;52.930;8.644;2023-07-24T12:57:40;5.13;;;4.30;;
7128;SDS011;3606;52.930;8.644;2023-07-24T13:00:05;5.65;;;4.32;;
7128;SDS011;3606;52.930;8.644;2023-07-24T13:02:31;5.20;;;4.07;;
7128;SDS011;3606;52.930;8.644;2023-07-24T13:05:08;5.03;;;4.32;;
7128;SDS011;3606;52.930;8.644;2023-07-24T13:07:33;6.68;;;4.53;;
7128;SDS011;3606;52.930;8.644;2023-07-24T13:09:59;4.97;;;3.50;;
7128;SDS011;3606;52.930;8.644;2023-07-24T13:12:25;5.30;;;4.18;;
7128;SDS011;3606;52.930;8.644;2023-07-24T13:14:50;5.53;;;3.90;;
7128;SDS011;3606;52.930;8.644;2023-07-24T13:17:16;8.43;;;4.50;;
7128;SDS011;3606;52.930;8.644;2023-07-24T13:19:44;7.80;;;4.70;;
7128;SDS011;3606;52.930;8.644;2023-07-24T13:22:10;5.32;;;4.30;;
7128;SDS011;3606;52.930;8.644;2023-07-24T13:24:35;4.20;;;3.80;;
7128;SDS011;3606;52.930;8.644;2023-07-24T13:27:01;4.57;;;4.05;;
7128;SDS011;3606;52.930;8.644;2023-07-24T13:29:26;6.15;;;4.57;;
7128;SDS011;3606;52.930;8.644;2023-07-24T13:31:52;6.22;;;4.03;;
7128;SDS011;3606;52.930;8.644;2023-07-24T13:34:18;4.97;;;4.43;;
7128;SDS011;3606;52.930;8.644;2023-07-24T13:36:44;6.00;;;4.18;;
7128;SDS011;3606;52.930;8.644;2023-07-24T13:39:11;6.50;;;4.32;;
7128;SDS011;3606;52.930;8.644;2023-07-24T13:41:37;8.80;;;5.72;;
7128;SDS011;3606;52.930;8.644;2023-07-24T13:44:03;4.70;;;3.92;;
7128;SDS011;3606;52.930;8.644;2023-07-24T13:46:29;5.65;;;4.40;;
7128;SDS011;3606;52.930;8.644;2023-07-24T13:48:55;4.43;;;4.03;;
7128;SDS011;3606;52.930;8.644;2023-07-24T13:51:20;4.25;;;3.85;;
7128;SDS011;3606;52.930;8.644;2023-07-24T13:53:46;4.88;;;3.88;;
7128;SDS011;3606;52.930;8.644;2023-07-24T13:56:13;5.00;;;3.90;;
7128;SDS011;3606;52.930;8.644;2023-07-24T13:58:39;4.75;;;3.50;;
7128;SDS011;3606;52.930;8.644;2023-07-24T14:01:04;5.65;;;3.60;;
7128;SDS011;3606;52.930;8.644;2023-07-24T14:03:32;4.72;;;3.78;;
7128;SDS011;3606;52.930;8.644;2023-07-24T14:05:58;4.00;;;3.60;;
7128;SDS011;3606;52.930;8.644;2023-07-24T14:08:23;4.72;;;3.90;;
7128;SDS011;3606;52.930;8.644;2023-07-24T14:10:49;4.35;;;3.95;;
7128;SDS011;3606;52.930;8.644;2023-07-24T14:13:16;5.38;;;3.70;;
7128;SDS011;3606;52.930;8.644;2023-07-24T14:15:41;5.53;;;3.50;;
7128;SDS011;3606;52.930;8.644;2023-07-24T14:18:07;3.88;;;3.28;;
7128;SDS011;3606;52.930;8.644;2023-07-24T14:20:33;5.43;;;3.17;;
7128;SDS011;3606;52.930;8.644;2023-07-24T14:22:58;3.80;;;3.40;;
7128;SDS011;3606;52.930;8.644;2023-07-24T14:25:24;3.42;;;3.08;;
7128;SDS011;3606;52.930;8.644;2023-07-24T14:27:50;3.88;;;3.35;;
7128;SDS011;3606;52.930;8.644;2023-07-24T14:30:15;5.93;;;3.42;;
7128;SDS011;3606;52.930;8.644;2023-07-24T14:32:41;3.75;;;3.35;;
7128;SDS011;3606;52.930;8.644;2023-07-24T14:35:07;4.10;;;3.50;;
7128;SDS011;3606;52.930;8.644;2023-07-24T14:37:32;5.03;;;3.70;;
7128;SDS011;3606;52.930;8.644;2023-07-24T14:39:58;5.20;;;3.58;;
7128;SDS011;3606;52.930;8.644;2023-07-24T14:42:24;4.20;;;3.40;;
7128;SDS011;3606;52.930;8.644;2023-07-24T14:44:49;3.15;;;2.85;;
7128;SDS011;3606;52.930;8.644;2023-07-24T14:47:15;3.70;;;3.40;;
7128;SDS011;3606;52.930;8.644;2023-07-24T14:49:41;4.07;;;3.17;;
7128;SDS011;3606;52.930;8.644;2023-07-24T14:52:06;4.15;;;3.72;;
7128;SDS011;3606;52.930;8.644;2023-07-24T14:54:32;3.88;;;3.15;;
7128;SDS011;3606;52.930;8.644;2023-07-24T14:56:58;4.50;;;3.50;;
7128;SDS011;3606;52.930;8.644;2023-07-24T14:59:23;3.80;;;3.35;;
7128;SDS011;3606;52.930;8.644;2023-07-24T15:01:49;4.43;;;3.40;;
7128;SDS011;3606;52.930;8.644;2023-07-24T15:04:14;4.97;;;3.80;;
7128;SDS011;3606;52.930;8.644;2023-07-24T15:06:40;3.50;;;3.08;;
7128;SDS011;3606;52.930;8.644;2023-07-24T15:09:06;4.45;;;3.60;;
7128;SDS011;3606;52.930;8.644;2023-07-24T15:11:31;3.78;;;3.40;;
7128;SDS011;3606;52.930;8.644;2023-07-24T15:13:57;4.72;;;3.67;;
7128;SDS011;3606;52.930;8.644;2023-07-24T15:16:22;4.53;;;3.47;;